sensor_id;sensor_type;location;lat;lon;timestamp;temperature;humidity
17154;DHT22;8692;52.164;7.558;2024-03-23T00:54:58;8.30;99.90
17154;DHT22;8692;52.164;7.558;2024-03-23T00:57:24;8.20;99.90
17154;DHT22;8692;52.164;7.558;2024-03-23T00:59:51;8.20;99.90
17154;DHT22;8692;52.164;7.558;2024-03-23T01:02:17;8.10;99.90
17154;DHT22;8692;52.164;7.558;2024-03-23T01:04:44;8.10;99.90
17154;DHT22;8692;52.164;7.558;2024-03-23T01:07:10;8.10;99.90
17154;DHT22;8692;52.164;7.558;2024-03-23T01:09:37;8.10;99.90
17154;DHT22;8692;52.164;7.558;2024-03-23T01:12:06;8.10;99.90
17154;DHT22;8692;52.164;7.558;2024-03-23T01:14:33;8.10;99.90
17154;DHT22;8692;52.164;7.558;2024-03-23T01:16:59;8.00;99.90
17154;DHT22;8692;52.164;7.558;2024-03-23T01:19:26;8.00;99.90
17154;DHT22;8692;52.164;7.558;2024-03-23T01:21:52;8.00;99.90
17154;DHT22;8692;52.164;7.558;2024-03-23T01:24:19;8.00;99.90
17154;DHT22;8692;52.164;7.558;2024-03-23T01:26:45;8.00;99.90
17154;DHT22;8692;52.164;7.558;2024-03-23T01:29:13;8.00;99.90
17154;DHT22;8692;52.164;7.558;2024-03-23T01:31:39;8.00;99.90
17154;DHT22;8692;52.164;7.558;2024-03-23T01:34:06;8.00;99.90
17154;DHT22;8692;52.164;7.558;2024-03-23T01:36:33;8.00;99.90
17154;DHT22;8692;52.164;7.558;2024-03-23T01:39:00;8.00;99.90
17154;DHT22;8692;52.164;7.558;2024-03-23T01:41:26;8.00;99.90
17154;DHT22;8692;52.164;7.558;2024-03-23T01:43:55;8.00;99.90
17154;DHT22;8692;52.164;7.558;2024-03-23T01:46:22;8.00;99.90
17154;DHT22;8692;52.164;7.558;2024-03-23T01:48:50;7.90;99.90
17154;DHT22;8692;52.164;7.558;2024-03-23T01:51:16;7.90;99.90
17154;DHT22;8692;52.164;7.558;2024-03-23T01:53:43;8.00;99.90
17154;DHT22;8692;52.164;7.558;2024-03-23T01:56:09;8.00;99.90
17154;DHT22;8692;52.164;7.558;2024-03-23T01:58:36;7.90;99.90
17154;DHT22;8692;52.164;7.558;2024-03-23T02:01:03;8.00;99.90
17154;DHT22;8692;52.164;7.558;2024-03-23T02:03:31;7.90;99.90
17154;DHT22;8692;52.164;7.558;2024-03-23T02:05:58;7.90;99.90
17154;DHT22;8692;52.164;7.558;2024-03-23T02:08:25;7.90;99.90
17154;DHT22;8692;52.164;7.558;2024-03-23T02:10:51;7.90;99.90
17154;DHT22;8692;52.164;7.558;2024-03-23T02:13:18;7.90;99.90
17154;DHT22;8692;52.164;7.558;2024-03-23T02:15:45;7.90;99.90
17154;DHT22;8692;52.164;7.558;2024-03-23T02:18:12;7.90;99.90
17154;DHT22;8692;52.164;7.558;2024-03-23T02:20:39;7.80;99.90
17154;DHT22;8692;52.164;7.558;2024-03-23T02:23:13;7.80;99.90
17154;DHT22;8692;52.164;7.558;2024-03-23T02:25:39;7.80;99.90
17154;DHT22;8692;52.164;7.558;2024-03-23T02:28:06;7.80;99.90
17154;DHT22;8692;52.164;7.558;2024-03-23T02:30:32;7.80;99.90
17154;DHT22;8692;52.164;7.558;2024-03-23T02:32:59;7.70;99.90
17154;DHT22;8692;52.164;7.558;2024-03-23T02:35:25;7.70;99.90
17154;DHT22;8692;52.164;7.558;2024-03-23T02:37:52;7.70;99.90
17154;DHT22;8692;52.164;7.558;2024-03-23T02:40:20;7.70;99.90
17154;DHT22;8692;52.164;7.558;2024-03-23T02:42:47;7.70;99.90
17154;DHT22;8692;52.164;7.558;2024-03-23T02:45:13;7.60;99.90
17154;DHT22;8692;52.164;7.558;2024-03-23T02:47:40;7.70;99.90
17154;DHT22;8692;52.164;7.558;2024-03-23T02:50:07;7.70;99.90
17154;DHT22;8692;52.164;7.558;2024-03-23T02:52:35;7.60;99.90
17154;DHT22;8692;52.164;7.558;2024-03-23T02:55:02;7.60;99.90
17154;DHT22;8692;52.164;7.558;2024-03-23T02:57:30;7.60;99.90
17154;DHT22;8692;52.164;7.558;2024-03-23T02:59:57;7.60;99.90
17154;DHT22;8692;52.164;7.558;2024-03-23T03:02:23;7.60;99.90
17154;DHT22;8692;52.164;7.558;2024-03-23T03:04:50;7.60;99.90
17154;DHT22;8692;52.164;7.558;2024-03-23T03:07:16;7.60;99.90
17154;DHT22;8692;52.164;7.558;2024-03-23T03:09:43;7.60;99.90
17154;DHT22;8692;52.164;7.558;2024-03-23T03:12:09;7.50;99.90
17154;DHT22;8692;52.164;7.558;2024-03-23T03:14:38;7.60;99.90
17154;DHT22;8692;52.164;7.558;2024-03-23T03:17:04;7.60;99.90
17154;DHT22;8692;52.164;7.558;2024-03-23T03:19:31;7.50;99.90
17154;DHT22;8692;52.164;7.558;2024-03-23T03:21:58;7.50;99.90
17154;DHT22;8692;52.164;7.558;2024-03-23T03:24:25;7.50;99.90
17154;DHT22;8692;52.164;7.558;2024-03-23T03:26:51;7.50;99.90
17154;DHT22;8692;52.164;7.558;2024-03-23T03:29:18;7.50;99.90
17154;DHT22;8692;52.164;7.558;2024-03-23T03:31:45;7.50;99.90
17154;DHT22;8692;52.164;7.558;2024-03-23T03:34:12;7.50;99.90
17154;DHT22;8692;52.164;7.558;2024-03-23T03:36:38;7.50;99.90
17154;DHT22;8692;52.164;7.558;2024-03-23T03:39:05;7.50;99.90
17154;DHT22;8692;52.164;7.558;2024-03-23T03:41:32;7.40;99.90
17154;DHT22;8692;52.164;7.558;2024-03-23T03:43:59;7.40;99.90
17154;DHT22;8692;52.164;7.558;2024-03-23T03:46:27;7.40;99.90
17154;DHT22;8692;52.164;7.558;2024-03-23T03:48:56;7.40;99.90
17154;DHT22;8692;52.164;7.558;2024-03-23T03:51:22;7.40;99.90
17154;DHT22;8692;52.164;7.558;2024-03-23T03:53:49;7.40;99.90
17154;DHT22;8692;52.164;7.558;2024-03-23T03:56:15;7.40;99.90
17154;DHT22;8692;52.164;7.558;2024-03-23T03:58:42;7.40;99.90
17154;DHT22;8692;52.164;7.558;2024-03-23T04:01:08;7.50;99.90
17154;DHT22;8692;52.164;7.558;2024-03-23T04:03:35;7.50;99.90
17154;DHT22;8692;52.164;7.558;2024-03-23T04:06:03;7.50;99.90
17154;DHT22;8692;52.164;7.558;2024-03-23T04:08:30;7.40;99.90
17154;DHT22;8692;52.164;7.558;2024-03-23T04:10:56;7.40;99.90
17154;DHT22;8692;52.164;7.558;2024-03-23T04:13:23;7.40;99.90
17154;DHT22;8692;52.164;7.558;2024-03-23T04:15:53;7.40;99.90
17154;DHT22;8692;52.164;7.558;2024-03-23T04:18:20;7.40;99.90
17154;DHT22;8692;52.164;7.558;2024-03-23T04:20:47;7.40;99.90
17154;DHT22;8692;52.164;7.558;2024-03-23T04:23:15;7.40;99.90
17154;DHT22;8692;52.164;7.558;2024-03-23T04:25:41;7.40;99.90
17154;DHT22;8692;52.164;7.558;2024-03-23T04:28:08;7.40;99.90
17154;DHT22;8692;52.164;7.558;2024-03-23T04:30:35;7.40;99.90
17154;DHT22;8692;52.164;7.558;2024-03-23T04:33:03;7.40;99.90
17154;DHT22;8692;52.164;7.558;2024-03-23T04:35:30;7.30;99.90
17154;DHT22;8692;52.164;7.558;2024-03-23T04:37:57;7.30;99.90
17154;DHT22;8692;52.164;7.558;2024-03-23T04:40:25;7.30;99.90
17154;DHT22;8692;52.164;7.558;2024-03-23T04:42:52;7.30;99.90
17154;DHT22;8692;52.164;7.558;2024-03-23T04:45:19;7.30;99.90
17154;DHT22;8692;52.164;7.558;2024-03-23T04:47:48;7.30;99.90
17154;DHT22;8692;52.164;7.558;2024-03-23T04:50:15;7.20;99.90
17154;DHT22;8692;52.164;7.558;2024-03-23T04:52:42;7.20;99.90
17154;DHT22;8692;52.164;7.558;2024-03-23T04:55:09;7.20;99.90
17154;DHT22;8692;52.164;7.558;2024-03-23T04:57:39;7.20;99.90
17154;DHT22;8692;52.164;7.558;2024-03-23T05:00:07;7.20;99.90
17154;DHT22;8692;52.164;7.558;2024-03-23T05:02:46;7.10;99.90
17154;DHT22;8692;52.164;7.558;2024-03-23T05:05:13;7.10;99.90
17154;DHT22;8692;52.164;7.558;2024-03-23T05:07:39;7.10;99.90
17154;DHT22;8692;52.164;7.558;2024-03-23T05:10:09;7.10;99.90
17154;DHT22;8692;52.164;7.558;2024-03-23T05:12:36;7.00;99.90
17154;DHT22;8692;52.164;7.558;2024-03-23T05:15:05;7.00;99.90
17154;DHT22;8692;52.164;7.558;2024-03-23T05:17:32;7.00;99.90
17154;DHT22;8692;52.164;7.558;2024-03-23T05:19:59;6.90;99.90
17154;DHT22;8692;52.164;7.558;2024-03-23T05:22:25;6.90;99.90
17154;DHT22;8692;52.164;7.558;2024-03-23T05:24:53;6.90;99.90
17154;DHT22;8692;52.164;7.558;2024-03-23T05:27:19;6.80;99.90
17154;DHT22;8692;52.164;7.558;2024-03-23T05:29:46;6.80;99.90
17154;DHT22;8692;52.164;7.558;2024-03-23T05:32:14;6.80;99.90
17154;DHT22;8692;52.164;7.558;2024-03-23T05:34:41;6.80;99.90
17154;DHT22;8692;52.164;7.558;2024-03-23T05:37:07;6.80;99.90
17154;DHT22;8692;52.164;7.558;2024-03-23T05:39:34;6.70;99.90
17154;DHT22;8692;52.164;7.558;2024-03-23T05:42:00;6.70;99.90
17154;DHT22;8692;52.164;7.558;2024-03-23T05:44:28;6.70;99.90
17154;DHT22;8692;52.164;7.558;2024-03-23T05:46:54;6.70;99.90
17154;DHT22;8692;52.164;7.558;2024-03-23T05:49:22;6.70;99.90
17154;DHT22;8692;52.164;7.558;2024-03-23T05:51:48;6.60;99.90
17154;DHT22;8692;52.164;7.558;2024-03-23T05:54:15;6.60;99.90
17154;DHT22;8692;52.164;7.558;2024-03-23T05:56:42;6.60;99.90
17154;DHT22;8692;52.164;7.558;2024-03-23T05:59:09;6.60;99.90
17154;DHT22;8692;52.164;7.558;2024-03-23T06:01:35;6.50;99.90
17154;DHT22;8692;52.164;7.558;2024-03-23T06:04:02;6.50;99.90
17154;DHT22;8692;52.164;7.558;2024-03-23T06:06:29;6.50;99.90
17154;DHT22;8692;52.164;7.558;2024-03-23T06:08:57;6.50;99.90
17154;DHT22;8692;52.164;7.558;2024-03-23T06:11:23;6.50;99.90
17154;DHT22;8692;52.164;7.558;2024-03-23T06:13:52;6.50;99.90
17154;DHT22;8692;52.164;7.558;2024-03-23T06:16:18;6.50;99.90
17154;DHT22;8692;52.164;7.558;2024-03-23T06:18:49;6.50;99.90
17154;DHT22;8692;52.164;7.558;2024-03-23T06:21:15;6.60;99.90
17154;DHT22;8692;52.164;7.558;2024-03-23T06:23:44;6.50;99.90
17154;DHT22;8692;52.164;7.558;2024-03-23T06:26:13;6.60;99.90
17154;DHT22;8692;52.164;7.558;2024-03-23T06:28:40;6.60;99.90
17154;DHT22;8692;52.164;7.558;2024-03-23T06:31:09;6.60;99.90
17154;DHT22;8692;52.164;7.558;2024-03-23T06:33:36;6.60;99.90
17154;DHT22;8692;52.164;7.558;2024-03-23T06:36:02;6.60;99.90
17154;DHT22;8692;52.164;7.558;2024-03-23T06:38:29;6.60;99.90
17154;DHT22;8692;52.164;7.558;2024-03-23T06:40:57;6.60;99.90
17154;DHT22;8692;52.164;7.558;2024-03-23T06:43:24;6.60;99.90
17154;DHT22;8692;52.164;7.558;2024-03-23T06:45:52;6.60;99.90
17154;DHT22;8692;52.164;7.558;2024-03-23T06:48:19;6.60;99.90
17154;DHT22;8692;52.164;7.558;2024-03-23T06:50:46;6.60;99.90
17154;DHT22;8692;52.164;7.558;2024-03-23T06:53:13;6.70;99.90
17154;DHT22;8692;52.164;7.558;2024-03-23T06:55:39;6.70;99.90
17154;DHT22;8692;52.164;7.558;2024-03-23T06:58:08;6.80;99.90
17154;DHT22;8692;52.164;7.558;2024-03-23T07:00:35;6.80;99.90
17154;DHT22;8692;52.164;7.558;2024-03-23T07:03:03;6.80;99.90
17154;DHT22;8692;52.164;7.558;2024-03-23T07:05:29;6.90;99.90
17154;DHT22;8692;52.164;7.558;2024-03-23T07:07:56;6.90;99.90
17154;DHT22;8692;52.164;7.558;2024-03-23T07:10:22;6.90;99.90
17154;DHT22;8692;52.164;7.558;2024-03-23T07:12:49;6.90;99.90
17154;DHT22;8692;52.164;7.558;2024-03-23T07:15:17;7.00;99.90
17154;DHT22;8692;52.164;7.558;2024-03-23T07:17:46;7.00;99.90
17154;DHT22;8692;52.164;7.558;2024-03-23T07:20:13;7.10;99.90
17154;DHT22;8692;52.164;7.558;2024-03-23T07:22:40;7.10;99.90
17154;DHT22;8692;52.164;7.558;2024-03-23T07:25:06;7.10;99.90
17154;DHT22;8692;52.164;7.558;2024-03-23T07:27:33;7.20;99.90
17154;DHT22;8692;52.164;7.558;2024-03-23T07:30:00;7.20;99.90
17154;DHT22;8692;52.164;7.558;2024-03-23T07:32:28;7.20;99.90
17154;DHT22;8692;52.164;7.558;2024-03-23T07:34:54;7.30;99.90
17154;DHT22;8692;52.164;7.558;2024-03-23T07:37:21;7.30;99.90
17154;DHT22;8692;52.164;7.558;2024-03-23T07:39:47;7.30;99.90
17154;DHT22;8692;52.164;7.558;2024-03-23T07:42:14;7.40;99.90
17154;DHT22;8692;52.164;7.558;2024-03-23T07:44:42;7.40;99.90
17154;DHT22;8692;52.164;7.558;2024-03-23T07:47:09;7.40;99.90
17154;DHT22;8692;52.164;7.558;2024-03-23T07:49:36;7.40;99.90
17154;DHT22;8692;52.164;7.558;2024-03-23T07:52:04;7.40;99.90
17154;DHT22;8692;52.164;7.558;2024-03-23T07:54:30;7.50;99.90
17154;DHT22;8692;52.164;7.558;2024-03-23T07:56:57;7.50;99.90
17154;DHT22;8692;52.164;7.558;2024-03-23T07:59:23;7.50;99.90
17154;DHT22;8692;52.164;7.558;2024-03-23T08:01:51;7.50;99.90
17154;DHT22;8692;52.164;7.558;2024-03-23T08:04:17;7.60;99.90
17154;DHT22;8692;52.164;7.558;2024-03-23T08:06:45;7.60;99.90
17154;DHT22;8692;52.164;7.558;2024-03-23T08:09:11;7.60;99.90
17154;DHT22;8692;52.164;7.558;2024-03-23T08:11:38;7.60;99.90
17154;DHT22;8692;52.164;7.558;2024-03-23T08:14:05;7.60;99.90
17154;DHT22;8692;52.164;7.558;2024-03-23T08:16:32;7.70;99.90
17154;DHT22;8692;52.164;7.558;2024-03-23T08:18:59;7.70;99.90
17154;DHT22;8692;52.164;7.558;2024-03-23T08:21:28;7.80;99.90
17154;DHT22;8692;52.164;7.558;2024-03-23T08:23:56;7.90;99.90
17154;DHT22;8692;52.164;7.558;2024-03-23T08:26:23;8.00;99.90
17154;DHT22;8692;52.164;7.558;2024-03-23T08:28:49;8.00;99.90
17154;DHT22;8692;52.164;7.558;2024-03-23T08:31:16;8.00;99.90
17154;DHT22;8692;52.164;7.558;2024-03-23T08:33:42;8.00;99.90
17154;DHT22;8692;52.164;7.558;2024-03-23T08:36:10;8.00;99.90
17154;DHT22;8692;52.164;7.558;2024-03-23T08:38:38;8.00;99.90
17154;DHT22;8692;52.164;7.558;2024-03-23T08:41:07;8.00;99.90
17154;DHT22;8692;52.164;7.558;2024-03-23T08:43:37;7.90;99.90
17154;DHT22;8692;52.164;7.558;2024-03-23T08:46:05;7.90;99.90
17154;DHT22;8692;52.164;7.558;2024-03-23T08:48:31;7.90;99.90
17154;DHT22;8692;52.164;7.558;2024-03-23T08:51:00;7.90;99.90
17154;DHT22;8692;52.164;7.558;2024-03-23T08:53:27;7.90;99.90
17154;DHT22;8692;52.164;7.558;2024-03-23T08:55:55;8.00;99.90
17154;DHT22;8692;52.164;7.558;2024-03-23T08:58:23;8.00;99.90
17154;DHT22;8692;52.164;7.558;2024-03-23T09:00:51;8.20;99.90
17154;DHT22;8692;52.164;7.558;2024-03-23T09:03:17;8.30;99.90
17154;DHT22;8692;52.164;7.558;2024-03-23T09:05:44;8.40;99.90
17154;DHT22;8692;52.164;7.558;2024-03-23T09:08:10;8.50;99.90
17154;DHT22;8692;52.164;7.558;2024-03-23T09:10:38;8.50;99.90
17154;DHT22;8692;52.164;7.558;2024-03-23T09:13:05;8.50;99.90
17154;DHT22;8692;52.164;7.558;2024-03-23T09:15:34;8.50;99.90
17154;DHT22;8692;52.164;7.558;2024-03-23T09:18:01;8.50;99.90
17154;DHT22;8692;52.164;7.558;2024-03-23T09:20:28;8.50;99.90
17154;DHT22;8692;52.164;7.558;2024-03-23T09:22:54;8.50;99.90
17154;DHT22;8692;52.164;7.558;2024-03-23T09:25:21;8.40;99.90
17154;DHT22;8692;52.164;7.558;2024-03-23T09:27:48;8.40;99.90
17154;DHT22;8692;52.164;7.558;2024-03-23T09:30:15;8.50;99.90
17154;DHT22;8692;52.164;7.558;2024-03-23T09:32:43;8.50;99.90
17154;DHT22;8692;52.164;7.558;2024-03-23T09:35:10;8.50;99.90
17154;DHT22;8692;52.164;7.558;2024-03-23T09:37:37;8.60;99.90
17154;DHT22;8692;52.164;7.558;2024-03-23T09:40:09;8.60;99.90
17154;DHT22;8692;52.164;7.558;2024-03-23T09:42:35;8.70;99.90
17154;DHT22;8692;52.164;7.558;2024-03-23T09:45:05;8.80;99.90
17154;DHT22;8692;52.164;7.558;2024-03-23T09:47:32;8.90;99.90
17154;DHT22;8692;52.164;7.558;2024-03-23T09:50:01;9.00;99.90
17154;DHT22;8692;52.164;7.558;2024-03-23T09:52:27;9.10;99.90
17154;DHT22;8692;52.164;7.558;2024-03-23T09:54:54;9.20;99.90
17154;DHT22;8692;52.164;7.558;2024-03-23T09:57:20;9.30;99.90
17154;DHT22;8692;52.164;7.558;2024-03-23T09:59:47;9.30;99.90
17154;DHT22;8692;52.164;7.558;2024-03-23T10:02:15;9.20;99.90
17154;DHT22;8692;52.164;7.558;2024-03-23T10:04:43;9.00;99.90
17154;DHT22;8692;52.164;7.558;2024-03-23T10:07:15;9.00;99.90
17154;DHT22;8692;52.164;7.558;2024-03-23T10:09:43;8.90;99.90
17154;DHT22;8692;52.164;7.558;2024-03-23T10:12:11;9.00;99.90
17154;DHT22;8692;52.164;7.558;2024-03-23T10:14:38;9.10;99.90
17154;DHT22;8692;52.164;7.558;2024-03-23T10:17:15;9.20;99.90
17154;DHT22;8692;52.164;7.558;2024-03-23T10:19:43;9.20;99.90
17154;DHT22;8692;52.164;7.558;2024-03-23T10:22:16;9.20;99.90
17154;DHT22;8692;52.164;7.558;2024-03-23T10:24:43;9.10;99.90
17154;DHT22;8692;52.164;7.558;2024-03-23T10:27:10;9.10;99.90
17154;DHT22;8692;52.164;7.558;2024-03-23T10:29:41;9.10;99.90
17154;DHT22;8692;52.164;7.558;2024-03-23T10:32:08;9.10;99.90
17154;DHT22;8692;52.164;7.558;2024-03-23T10:34:35;9.10;99.90
17154;DHT22;8692;52.164;7.558;2024-03-23T10:37:03;9.20;99.90
17154;DHT22;8692;52.164;7.558;2024-03-23T10:39:32;9.30;99.90
17154;DHT22;8692;52.164;7.558;2024-03-23T10:42:02;9.50;99.90
17154;DHT22;8692;52.164;7.558;2024-03-23T10:44:29;9.60;99.90
17154;DHT22;8692;52.164;7.558;2024-03-23T10:46:57;9.70;99.90
17154;DHT22;8692;52.164;7.558;2024-03-23T10:49:26;9.90;99.90
17154;DHT22;8692;52.164;7.558;2024-03-23T10:51:57;10.10;99.90
17154;DHT22;8692;52.164;7.558;2024-03-23T10:54:24;10.10;99.90
17154;DHT22;8692;52.164;7.558;2024-03-23T10:57:01;10.10;99.90
17154;DHT22;8692;52.164;7.558;2024-03-23T10:59:29;10.10;99.90
17154;DHT22;8692;52.164;7.558;2024-03-23T11:01:58;10.10;99.90
17154;DHT22;8692;52.164;7.558;2024-03-23T11:04:32;10.00;99.90
17154;DHT22;8692;52.164;7.558;2024-03-23T11:07:00;10.00;99.90
17154;DHT22;8692;52.164;7.558;2024-03-23T11:09:38;10.00;99.90
17154;DHT22;8692;52.164;7.558;2024-03-23T11:12:24;10.00;99.90
17154;DHT22;8692;52.164;7.558;2024-03-23T11:14:52;10.00;99.90
17154;DHT22;8692;52.164;7.558;2024-03-23T11:17:21;9.90;99.90
17154;DHT22;8692;52.164;7.558;2024-03-23T11:19:53;9.90;99.90
17154;DHT22;8692;52.164;7.558;2024-03-23T11:22:42;9.90;99.90
17154;DHT22;8692;52.164;7.558;2024-03-23T11:25:16;9.90;99.90
17154;DHT22;8692;52.164;7.558;2024-03-23T11:27:45;9.90;99.90
17154;DHT22;8692;52.164;7.558;2024-03-23T11:30:12;10.00;99.90
17154;DHT22;8692;52.164;7.558;2024-03-23T11:32:40;10.00;99.90
17154;DHT22;8692;52.164;7.558;2024-03-23T11:35:07;10.20;99.90
17154;DHT22;8692;52.164;7.558;2024-03-23T11:37:36;10.30;99.90
17154;DHT22;8692;52.164;7.558;2024-03-23T11:40:17;10.40;99.90
17154;DHT22;8692;52.164;7.558;2024-03-23T11:42:45;10.50;99.90
17154;DHT22;8692;52.164;7.558;2024-03-23T11:45:12;10.60;99.90
17154;DHT22;8692;52.164;7.558;2024-03-23T11:47:40;10.70;99.90
17154;DHT22;8692;52.164;7.558;2024-03-23T11:50:06;10.80;99.90
17154;DHT22;8692;52.164;7.558;2024-03-23T11:52:33;10.80;99.90
17154;DHT22;8692;52.164;7.558;2024-03-23T11:55:06;10.90;99.90
17154;DHT22;8692;52.164;7.558;2024-03-23T11:57:34;10.90;99.90
17154;DHT22;8692;52.164;7.558;2024-03-23T12:00:01;10.90;99.90
17154;DHT22;8692;52.164;7.558;2024-03-23T12:02:31;10.90;99.90
17154;DHT22;8692;52.164;7.558;2024-03-23T12:04:57;10.70;99.90
17154;DHT22;8692;52.164;7.558;2024-03-23T12:07:24;10.60;99.90
17154;DHT22;8692;52.164;7.558;2024-03-23T12:10:02;10.30;99.90
17154;DHT22;8692;52.164;7.558;2024-03-23T12:12:30;10.00;99.90
17154;DHT22;8692;52.164;7.558;2024-03-23T12:15:05;9.50;99.90
17154;DHT22;8692;52.164;7.558;2024-03-23T12:17:32;9.00;99.90
17154;DHT22;8692;52.164;7.558;2024-03-23T12:19:58;8.70;99.90
17154;DHT22;8692;52.164;7.558;2024-03-23T12:22:25;8.70;99.90
17154;DHT22;8692;52.164;7.558;2024-03-23T12:24:52;8.50;99.90
17154;DHT22;8692;52.164;7.558;2024-03-23T12:27:19;8.60;99.90
17154;DHT22;8692;52.164;7.558;2024-03-23T12:29:45;8.70;99.90
17154;DHT22;8692;52.164;7.558;2024-03-23T12:32:14;8.80;99.90
17154;DHT22;8692;52.164;7.558;2024-03-23T12:34:42;8.90;99.90
17154;DHT22;8692;52.164;7.558;2024-03-23T12:37:08;9.00;99.90
17154;DHT22;8692;52.164;7.558;2024-03-23T12:39:35;9.10;99.90
17154;DHT22;8692;52.164;7.558;2024-03-23T12:42:03;9.10;99.90
17154;DHT22;8692;52.164;7.558;2024-03-23T12:44:29;9.10;99.90
17154;DHT22;8692;52.164;7.558;2024-03-23T12:46:56;9.20;99.90
17154;DHT22;8692;52.164;7.558;2024-03-23T12:49:23;9.20;99.90
17154;DHT22;8692;52.164;7.558;2024-03-23T12:51:54;9.20;99.90
17154;DHT22;8692;52.164;7.558;2024-03-23T12:54:20;9.20;99.90
17154;DHT22;8692;52.164;7.558;2024-03-23T12:56:48;9.20;99.90
17154;DHT22;8692;52.164;7.558;2024-03-23T12:59:15;9.20;99.90
17154;DHT22;8692;52.164;7.558;2024-03-23T13:01:42;9.20;99.90
17154;DHT22;8692;52.164;7.558;2024-03-23T13:04:09;9.30;99.90
17154;DHT22;8692;52.164;7.558;2024-03-23T13:06:37;9.20;99.90
17154;DHT22;8692;52.164;7.558;2024-03-23T13:09:04;9.20;99.90
17154;DHT22;8692;52.164;7.558;2024-03-23T13:11:31;9.20;99.90
17154;DHT22;8692;52.164;7.558;2024-03-23T13:13:57;9.20;99.90
17154;DHT22;8692;52.164;7.558;2024-03-23T13:16:24;9.20;99.90
17154;DHT22;8692;52.164;7.558;2024-03-23T13:18:50;9.10;99.90
17154;DHT22;8692;52.164;7.558;2024-03-23T13:21:17;9.10;99.90
17154;DHT22;8692;52.164;7.558;2024-03-23T13:23:47;9.10;99.90
17154;DHT22;8692;52.164;7.558;2024-03-23T13:26:16;9.00;99.90
17154;DHT22;8692;52.164;7.558;2024-03-23T13:28:42;8.80;99.90
17154;DHT22;8692;52.164;7.558;2024-03-23T13:31:10;8.80;99.90
17154;DHT22;8692;52.164;7.558;2024-03-23T13:33:36;8.80;99.90
17154;DHT22;8692;52.164;7.558;2024-03-23T13:36:04;9.00;99.90
17154;DHT22;8692;52.164;7.558;2024-03-23T13:38:30;9.10;99.90
17154;DHT22;8692;52.164;7.558;2024-03-23T13:40:59;9.20;99.90
17154;DHT22;8692;52.164;7.558;2024-03-23T13:43:26;9.40;99.90
17154;DHT22;8692;52.164;7.558;2024-03-23T13:45:55;9.50;99.90
17154;DHT22;8692;52.164;7.558;2024-03-23T13:48:22;9.60;99.90
17154;DHT22;8692;52.164;7.558;2024-03-23T13:50:56;9.70;99.90
17154;DHT22;8692;52.164;7.558;2024-03-23T13:53:23;9.80;99.90
17154;DHT22;8692;52.164;7.558;2024-03-23T13:55:50;10.00;99.90
17154;DHT22;8692;52.164;7.558;2024-03-23T13:58:18;10.10;99.90
17154;DHT22;8692;52.164;7.558;2024-03-23T14:00:45;10.20;99.90
17154;DHT22;8692;52.164;7.558;2024-03-23T14:03:11;10.20;99.90
17154;DHT22;8692;52.164;7.558;2024-03-23T14:05:39;10.20;99.90
17154;DHT22;8692;52.164;7.558;2024-03-23T14:08:06;10.20;99.90
17154;DHT22;8692;52.164;7.558;2024-03-23T14:10:33;10.10;99.90
17154;DHT22;8692;52.164;7.558;2024-03-23T14:12:59;10.00;99.90
17154;DHT22;8692;52.164;7.558;2024-03-23T14:15:28;10.00;99.90
17154;DHT22;8692;52.164;7.558;2024-03-23T14:17:54;9.90;99.90
17154;DHT22;8692;52.164;7.558;2024-03-23T14:20:21;9.80;99.90
17154;DHT22;8692;52.164;7.558;2024-03-23T14:22:47;9.90;99.90
17154;DHT22;8692;52.164;7.558;2024-03-23T14:25:14;10.00;99.90
17154;DHT22;8692;52.164;7.558;2024-03-23T14:27:40;10.10;99.90
17154;DHT22;8692;52.164;7.558;2024-03-23T14:30:08;10.20;99.90
17154;DHT22;8692;52.164;7.558;2024-03-23T14:32:36;10.30;99.90
17154;DHT22;8692;52.164;7.558;2024-03-23T14:35:03;10.30;99.90
17154;DHT22;8692;52.164;7.558;2024-03-23T14:37:30;10.20;99.90
17154;DHT22;8692;52.164;7.558;2024-03-23T14:39:57;10.20;99.90
17154;DHT22;8692;52.164;7.558;2024-03-23T14:42:24;10.30;99.90
17154;DHT22;8692;52.164;7.558;2024-03-23T14:44:51;10.40;99.90
17154;DHT22;8692;52.164;7.558;2024-03-23T14:47:17;10.60;99.90
17154;DHT22;8692;52.164;7.558;2024-03-23T14:49:46;10.80;99.90
17154;DHT22;8692;52.164;7.558;2024-03-23T14:52:13;10.90;99.90
17154;DHT22;8692;52.164;7.558;2024-03-23T14:54:40;10.90;99.90
17154;DHT22;8692;52.164;7.558;2024-03-23T14:57:07;10.90;99.90
17154;DHT22;8692;52.164;7.558;2024-03-23T14:59:34;10.80;99.90
17154;DHT22;8692;52.164;7.558;2024-03-23T15:02:01;10.70;99.90
17154;DHT22;8692;52.164;7.558;2024-03-23T15:04:27;10.60;99.90
17154;DHT22;8692;52.164;7.558;2024-03-23T15:06:56;10.40;99.90
17154;DHT22;8692;52.164;7.558;2024-03-23T15:09:22;10.30;99.90
17154;DHT22;8692;52.164;7.558;2024-03-23T15:11:49;10.10;99.90
17154;DHT22;8692;52.164;7.558;2024-03-23T15:14:15;9.90;99.90
17154;DHT22;8692;52.164;7.558;2024-03-23T15:16:42;9.80;99.90
17154;DHT22;8692;52.164;7.558;2024-03-23T15:19:08;9.80;99.90
17154;DHT22;8692;52.164;7.558;2024-03-23T15:21:36;10.00;99.90
17154;DHT22;8692;52.164;7.558;2024-03-23T15:24:04;10.10;99.90
17154;DHT22;8692;52.164;7.558;2024-03-23T15:26:31;10.20;99.90
17154;DHT22;8692;52.164;7.558;2024-03-23T15:28:57;10.20;99.90
17154;DHT22;8692;52.164;7.558;2024-03-23T15:31:42;10.10;99.90
17154;DHT22;8692;52.164;7.558;2024-03-23T15:34:08;10.00;99.90
17154;DHT22;8692;52.164;7.558;2024-03-23T15:36:36;10.00;99.90
17154;DHT22;8692;52.164;7.558;2024-03-23T15:39:05;9.90;99.90
17154;DHT22;8692;52.164;7.558;2024-03-23T15:41:33;9.70;99.90
17154;DHT22;8692;52.164;7.558;2024-03-23T15:44:01;9.50;99.90
17154;DHT22;8692;52.164;7.558;2024-03-23T15:46:28;9.00;99.90
17154;DHT22;8692;52.164;7.558;2024-03-23T15:48:54;8.70;99.90
17154;DHT22;8692;52.164;7.558;2024-03-23T15:51:21;8.40;99.90
17154;DHT22;8692;52.164;7.558;2024-03-23T15:53:47;8.20;99.90
17154;DHT22;8692;52.164;7.558;2024-03-23T15:56:19;8.00;99.90
17154;DHT22;8692;52.164;7.558;2024-03-23T15:58:45;7.90;99.90
17154;DHT22;8692;52.164;7.558;2024-03-23T16:01:12;7.80;99.90
17154;DHT22;8692;52.164;7.558;2024-03-23T16:03:38;7.70;99.90
17154;DHT22;8692;52.164;7.558;2024-03-23T16:06:06;7.70;99.90
17154;DHT22;8692;52.164;7.558;2024-03-23T16:08:33;7.70;99.90
17154;DHT22;8692;52.164;7.558;2024-03-23T16:11:01;7.60;99.90
17154;DHT22;8692;52.164;7.558;2024-03-23T16:13:28;7.60;99.90
17154;DHT22;8692;52.164;7.558;2024-03-23T16:15:55;7.50;99.90
17154;DHT22;8692;52.164;7.558;2024-03-23T16:18:22;7.40;99.90
17154;DHT22;8692;52.164;7.558;2024-03-23T16:20:54;7.40;99.90
17154;DHT22;8692;52.164;7.558;2024-03-23T16:23:20;7.50;99.90
17154;DHT22;8692;52.164;7.558;2024-03-23T16:25:48;7.60;99.90
17154;DHT22;8692;52.164;7.558;2024-03-23T16:28:25;7.60;99.90
17154;DHT22;8692;52.164;7.558;2024-03-23T16:30:57;7.70;99.90
17154;DHT22;8692;52.164;7.558;2024-03-23T16:33:24;7.70;99.90
17154;DHT22;8692;52.164;7.558;2024-03-23T16:35:58;7.70;99.90
17154;DHT22;8692;52.164;7.558;2024-03-23T16:38:25;7.70;99.90
17154;DHT22;8692;52.164;7.558;2024-03-23T16:40:56;7.70;99.90
17154;DHT22;8692;52.164;7.558;2024-03-23T16:43:22;7.80;99.90
17154;DHT22;8692;52.164;7.558;2024-03-23T16:45:58;7.70;99.90
17154;DHT22;8692;52.164;7.558;2024-03-23T16:48:26;7.80;99.90
17154;DHT22;8692;52.164;7.558;2024-03-23T16:50:56;7.80;99.90
17154;DHT22;8692;52.164;7.558;2024-03-23T16:53:22;7.90;99.90
17154;DHT22;8692;52.164;7.558;2024-03-23T16:55:54;7.90;99.90